Time;durP1;ratioP1;P1;durP2;ratioP2;P2;SDS_P1;SDS_P2;PMS_P1;PMS_P2;Temp;Humidity;BMP_temperature;BMP_pressure;BME280_temperature;BME280_humidity;BME280_pressure;Samples;Min_cycle;Max_cycle;Signal;HPM_P1;HPM_P2
2022/10/10 00:01:32;;;;;;;5.88;4.57;;;19.50;96.70;;;;;;5088449;28;20055;-73
2022/10/10 00:04:01;;;;;;;6.35;5.18;;;19.40;96.70;;;;;;5085902;28;20052;-73
2022/10/10 00:06:30;;;;;;;6.63;4.97;;;19.40;96.70;;;;;;5089728;28;20036;-73
2022/10/10 00:09:01;;;;;;;5.93;5.03;;;19.40;96.70;;;;;;5066472;28;20102;-73
2022/10/10 00:11:30;;;;;;;5.80;4.78;;;19.40;96.70;;;;;;5104091;28;20560;-73
2022/10/10 00:14:00;;;;;;;6.28;4.88;;;19.40;96.70;;;;;;5088013;28;20043;-73
2022/10/10 00:16:28;;;;;;;5.95;4.85;;;19.40;96.70;;;;;;5075715;28;20079;-73
2022/10/10 00:18:57;;;;;;;7.18;5.03;;;19.40;96.70;;;;;;5085631;28;20387;-73
2022/10/10 00:21:25;;;;;;;7.38;5.65;;;19.40;96.70;;;;;;5089950;28;20485;-75
2022/10/10 00:23:54;;;;;;;7.45;5.30;;;19.30;96.70;;;;;;5089047;28;20040;-74
2022/10/10 00:26:24;;;;;;;7.63;5.28;;;19.30;96.70;;;;;;5085354;28;20048;-74
2022/10/10 00:28:52;;;;;;;5.40;4.90;;;19.40;96.70;;;;;;5087538;28;20049;-74
2022/10/10 00:31:22;;;;;;;7.43;4.68;;;19.30;96.70;;;;;;5088122;28;20130;-74
2022/10/10 00:33:51;;;;;;;6.18;5.03;;;19.30;96.70;;;;;;5089446;28;20043;-74
2022/10/10 00:36:20;;;;;;;6.47;5.38;;;19.40;96.70;;;;;;5089045;28;20028;-74
2022/10/10 00:38:48;;;;;;;6.93;5.15;;;19.30;96.70;;;;;;5085097;28;20041;-74
2022/10/10 00:41:16;;;;;;;8.55;5.22;;;19.40;96.70;;;;;;5085765;28;20032;-74
2022/10/10 00:44:00;;;;;;;5.75;5.10;;;19.30;96.70;;;;;;5087454;28;20052;-74
2022/10/10 00:46:30;;;;;;;8.18;4.75;;;19.30;96.70;;;;;;5087855;28;20154;-75
2022/10/10 00:48:59;;;;;;;6.97;5.32;;;19.20;96.70;;;;;;5085469;28;20042;-75
2022/10/10 00:51:27;;;;;;;6.00;4.38;;;19.30;96.70;;;;;;5083714;28;20501;-75
2022/10/10 00:53:59;;;;;;;6.40;4.68;;;19.30;96.70;;;;;;5081594;28;20119;-75
2022/10/10 00:56:30;;;;;;;8.43;4.80;;;19.30;96.70;;;;;;5085335;28;20044;-74
2022/10/10 00:59:03;;;;;;;5.53;4.45;;;19.30;96.70;;;;;;5085355;28;20089;-74
2022/10/10 01:01:33;;;;;;;6.03;4.45;;;19.30;96.70;;;;;;5084136;28;20219;-75
2022/10/10 01:04:02;;;;;;;6.43;4.57;;;19.20;96.70;;;;;;5085499;28;20040;-74
2022/10/10 01:06:31;;;;;;;8.50;4.60;;;19.20;96.70;;;;;;5067397;28;20490;-74
2022/10/10 01:09:00;;;;;;;6.28;5.00;;;19.20;96.70;;;;;;5079801;28;20778;-74
2022/10/10 01:11:41;;;;;;;7.75;4.95;;;19.20;96.70;;;;;;5084514;28;20070;-74
2022/10/10 01:14:20;;;;;;;7.53;4.90;;;19.20;96.70;;;;;;5085176;28;20042;-73
2022/10/10 01:17:01;;;;;;;7.65;4.88;;;19.20;96.70;;;;;;5086137;28;20060;-74
2022/10/10 01:19:56;;;;;;;7.00;4.80;;;19.20;96.70;;;;;;5100132;28;20101;-74
2022/10/10 01:22:33;;;;;;;12.68;5.68;;;19.20;96.70;;;;;;5082530;28;20094;-73
2022/10/10 01:25:18;;;;;;;8.60;4.38;;;19.30;96.70;;;;;;5085122;28;20045;-74
2022/10/10 01:27:50;;;;;;;6.75;4.72;;;19.20;96.70;;;;;;5084704;28;20032;-74
2022/10/10 01:30:22;;;;;;;7.93;4.82;;;19.20;96.70;;;;;;5085071;28;20060;-74
2022/10/10 01:32:54;;;;;;;7.07;5.03;;;19.20;96.70;;;;;;5079538;28;20143;-74
2022/10/10 01:35:41;;;;;;;7.13;5.78;;;19.10;96.70;;;;;;5077822;28;20040;-74
2022/10/10 01:38:19;;;;;;;7.18;5.03;;;19.10;96.70;;;;;;5079047;28;20128;-74
2022/10/10 01:40:51;;;;;;;6.82;4.95;;;19.10;96.70;;;;;;5080399;28;20080;-74
2022/10/10 01:43:20;;;;;;;5.00;4.50;;;19.10;96.70;;;;;;5083194;28;20680;-74
2022/10/10 01:45:51;;;;;;;4.95;4.28;;;19.00;96.70;;;;;;5083719;28;20759;-74
2022/10/10 01:48:22;;;;;;;6.13;4.22;;;19.00;96.70;;;;;;5083213;28;20044;-74
2022/10/10 01:51:06;;;;;;;5.35;4.70;;;19.00;96.70;;;;;;5080405;28;20076;-74
2022/10/10 01:53:42;;;;;;;8.68;4.45;;;19.00;96.70;;;;;;5111523;27;20052;-74
2022/10/10 01:56:19;;;;;;;6.23;4.33;;;19.00;96.70;;;;;;5083677;28;20129;-74
2022/10/10 01:59:08;;;;;;;5.43;4.60;;;19.00;96.70;;;;;;5076117;28;20048;-74
2022/10/10 02:01:45;;;;;;;9.32;4.55;;;18.90;96.70;;;;;;5079279;28;20519;-74
2022/10/10 02:04:22;;;;;;;7.88;4.53;;;19.00;96.70;;;;;;5082174;28;20825;-74
2022/10/10 02:06:54;;;;;;;5.40;4.75;;;19.00;96.70;;;;;;5083050;28;20056;-74
2022/10/10 02:09:30;;;;;;;5.00;3.92;;;19.00;96.70;;;;;;5084374;28;20079;-74
2022/10/10 02:12:00;;;;;;;7.97;4.43;;;19.00;96.70;;;;;;5082007;28;20482;-74
2022/10/10 02:14:34;;;;;;;6.18;4.45;;;19.00;96.70;;;;;;5084701;28;20040;-74
2022/10/10 02:17:05;;;;;;;6.25;4.53;;;19.00;96.70;;;;;;5082358;28;20517;-74
2022/10/10 02:19:34;;;;;;;6.32;4.65;;;19.00;96.70;;;;;;5085201;28;20040;-74
2022/10/10 02:22:03;;;;;;;7.00;4.65;;;19.00;96.70;;;;;;5081750;28;20040;-74
2022/10/10 02:24:32;;;;;;;6.75;4.95;;;18.90;96.70;;;;;;5083139;28;20077;-75
2022/10/10 02:27:07;;;;;;;6.15;4.82;;;18.90;96.70;;;;;;5062390;28;20094;-74
2022/10/10 02:29:39;;;;;;;8.40;5.38;;;18.90;96.70;;;;;;5081987;28;20456;-73
2022/10/10 02:32:14;;;;;;;7.15;4.85;;;18.90;96.70;;;;;;5084006;28;20043;-73
2022/10/10 02:34:45;;;;;;;6.10;4.85;;;18.90;96.70;;;;;;5082087;28;20056;-74
2022/10/10 02:37:15;;;;;;;8.80;5.03;;;18.90;96.70;;;;;;5084048;28;20036;-75
2022/10/10 02:39:47;;;;;;;9.77;4.85;;;18.90;96.70;;;;;;5080558;28;20090;-74
2022/10/10 02:42:18;;;;;;;5.95;4.35;;;18.90;96.70;;;;;;5081846;28;20052;-74
2022/10/10 02:44:46;;;;;;;6.40;4.53;;;18.90;96.70;;;;;;5098555;28;20046;-75
2022/10/10 02:47:16;;;;;;;7.00;4.28;;;18.90;96.70;;;;;;5058220;28;20048;-74
2022/10/10 02:49:45;;;;;;;6.47;4.65;;;18.90;96.70;;;;;;5062825;28;20435;-74
2022/10/10 02:52:15;;;;;;;6.18;4.93;;;18.90;96.70;;;;;;5078331;28;20044;-73
2022/10/10 02:54:43;;;;;;;7.30;4.60;;;18.90;96.70;;;;;;5076773;28;20032;-74
2022/10/10 02:57:11;;;;;;;7.45;4.47;;;18.90;96.70;;;;;;5083420;28;20129;-74
2022/10/10 02:59:40;;;;;;;5.63;4.45;;;18.90;96.70;;;;;;5081913;28;20048;-74
2022/10/10 03:02:08;;;;;;;5.40;4.90;;;18.90;96.70;;;;;;5064857;28;20071;-74
2022/10/10 03:04:38;;;;;;;5.22;4.32;;;18.90;96.70;;;;;;5081165;28;20102;-74
2022/10/10 03:07:07;;;;;;;9.18;5.18;;;18.90;96.70;;;;;;5065041;28;20097;-75
2022/10/10 03:09:35;;;;;;;7.90;4.65;;;18.90;96.70;;;;;;5081913;28;20097;-74
2022/10/10 03:12:03;;;;;;;7.72;4.72;;;18.90;96.70;;;;;;5081270;28;20051;-74
2022/10/10 03:14:31;;;;;;;5.65;5.03;;;18.90;96.70;;;;;;5063295;28;20040;-74
2022/10/10 03:17:00;;;;;;;6.45;4.88;;;18.80;96.70;;;;;;5065312;28;20056;-74
2022/10/10 03:19:28;;;;;;;7.55;4.35;;;18.90;96.70;;;;;;5082919;28;20134;-74
2022/10/10 03:21:57;;;;;;;7.38;4.65;;;18.90;96.70;;;;;;5083482;28;20122;-74
2022/10/10 03:24:26;;;;;;;4.78;4.20;;;18.90;96.70;;;;;;5078359;28;20051;-74
2022/10/10 03:26:54;;;;;;;8.60;4.60;;;18.90;96.70;;;;;;5083751;28;20072;-74
2022/10/10 03:29:22;;;;;;;6.90;4.57;;;18.90;96.70;;;;;;5081372;28;20901;-74
2022/10/10 03:31:50;;;;;;;6.07;4.45;;;18.90;96.70;;;;;;5083760;28;20071;-72
2022/10/10 03:34:18;;;;;;;9.60;4.43;;;18.90;96.70;;;;;;5081662;28;20123;-73
2022/10/10 03:36:47;;;;;;;6.28;4.82;;;18.90;96.70;;;;;;5082275;28;20044;-74
2022/10/10 03:39:16;;;;;;;6.13;4.90;;;18.80;96.70;;;;;;5079608;28;20043;-73
2022/10/10 03:41:44;;;;;;;5.15;4.43;;;18.70;96.70;;;;;;5083566;28;20052;-73
2022/10/10 03:44:13;;;;;;;8.40;4.80;;;18.70;96.70;;;;;;5081305;28;20047;-74
2022/10/10 03:46:41;;;;;;;5.53;4.75;;;18.60;96.70;;;;;;5077736;28;20048;-73
2022/10/10 03:49:09;;;;;;;8.00;5.32;;;18.60;96.70;;;;;;5082704;28;20046;-74
2022/10/10 03:51:37;;;;;;;6.10;4.82;;;18.60;96.70;;;;;;5081277;28;20055;-74
2022/10/10 03:54:05;;;;;;;7.68;4.63;;;18.70;96.70;;;;;;5082406;28;20056;-74
2022/10/10 03:56:35;;;;;;;8.45;5.20;;;18.70;96.70;;;;;;5082402;28;20051;-73
2022/10/10 03:59:05;;;;;;;7.03;5.43;;;18.70;96.70;;;;;;5081113;28;20048;-73
2022/10/10 04:01:33;;;;;;;6.80;4.80;;;18.70;96.70;;;;;;5081434;28;20051;-74
2022/10/10 04:04:01;;;;;;;7.72;5.45;;;18.70;96.70;;;;;;5080469;28;20048;-73
2022/10/10 04:06:29;;;;;;;5.65;4.85;;;18.70;96.70;;;;;;5104058;28;20075;-72
2022/10/10 04:08:57;;;;;;;6.68;5.63;;;18.80;96.70;;;;;;5082018;28;20469;-73
2022/10/10 04:11:26;;;;;;;7.85;6.55;;;18.80;96.70;;;;;;5081053;28;20505;-74
2022/10/10 04:13:55;;;;;;;6.38;4.75;;;18.80;96.70;;;;;;5081420;28;20569;-73
2022/10/10 04:16:23;;;;;;;6.85;5.75;;;18.80;96.70;;;;;;5097586;28;20036;-74
2022/10/10 04:18:52;;;;;;;5.85;5.25;;;18.80;96.70;;;;;;5082855;28;20044;-74
2022/10/10 04:21:20;;;;;;;5.75;4.93;;;18.80;96.70;;;;;;5082874;28;20036;-73
2022/10/10 04:23:48;;;;;;;6.10;5.38;;;18.80;96.70;;;;;;5084811;28;20044;-73
2022/10/10 04:26:16;;;;;;;6.65;4.80;;;18.80;96.70;;;;;;5086522;28;20059;-73
2022/10/10 04:28:44;;;;;;;7.00;5.45;;;18.80;96.70;;;;;;5081494;28;20623;-74
2022/10/10 04:31:14;;;;;;;5.78;4.75;;;18.80;96.70;;;;;;5085221;28;20047;-74
2022/10/10 04:33:42;;;;;;;6.10;4.82;;;18.80;96.70;;;;;;5084637;28;20194;-73
2022/10/10 04:36:10;;;;;;;12.00;5.40;;;18.80;96.70;;;;;;5085637;28;20473;-73
2022/10/10 04:38:39;;;;;;;5.75;5.00;;;18.80;96.70;;;;;;5085803;28;20040;-73
2022/10/10 04:41:07;;;;;;;5.28;4.78;;;18.80;96.70;;;;;;5083932;28;20111;-74
2022/10/10 04:43:35;;;;;;;5.90;5.10;;;18.90;96.70;;;;;;5085035;28;20040;-74
2022/10/10 04:46:03;;;;;;;11.27;5.32;;;18.80;96.70;;;;;;5083819;28;20055;-73
2022/10/10 04:48:33;;;;;;;6.45;5.03;;;18.80;96.70;;;;;;5084735;28;20056;-74
2022/10/10 04:51:01;;;;;;;8.85;5.30;;;18.80;96.70;;;;;;5082973;28;20513;-74
2022/10/10 04:53:30;;;;;;;6.80;5.10;;;18.80;96.70;;;;;;5084069;28;20056;-73
2022/10/10 04:55:58;;;;;;;6.57;5.07;;;18.80;96.70;;;;;;5084481;28;20040;-73
2022/10/10 04:58:26;;;;;;;7.25;5.00;;;18.80;96.70;;;;;;5085737;28;20040;-73
2022/10/10 05:00:55;;;;;;;7.72;5.18;;;18.70;96.70;;;;;;5079050;28;20043;-73
2022/10/10 05:03:24;;;;;;;6.60;5.43;;;18.80;96.70;;;;;;5084989;28;20040;-73
2022/10/10 05:05:54;;;;;;;10.18;6.25;;;18.80;96.70;;;;;;5085958;28;20044;-74
2022/10/10 05:08:22;;;;;;;6.35;5.15;;;18.80;96.70;;;;;;5084356;28;20047;-74
2022/10/10 05:10:52;;;;;;;7.60;5.47;;;18.70;96.70;;;;;;5082860;28;20052;-73
2022/10/10 05:13:20;;;;;;;8.07;5.50;;;18.70;96.70;;;;;;5085151;28;20075;-73
2022/10/10 05:15:51;;;;;;;7.25;5.30;;;18.70;96.70;;;;;;5085447;28;20652;-73
2022/10/10 05:18:19;;;;;;;6.72;5.55;;;18.70;96.70;;;;;;5084508;28;20143;-74
2022/10/10 05:20:47;;;;;;;6.10;5.50;;;18.70;96.70;;;;;;5083804;28;20541;-73
2022/10/10 05:23:17;;;;;;;6.47;5.00;;;18.70;96.70;;;;;;5085460;28;20382;-74
2022/10/10 05:25:48;;;;;;;11.77;6.10;;;18.70;96.70;;;;;;5091911;28;20098;-73
2022/10/10 05:28:16;;;;;;;10.95;5.57;;;18.70;96.70;;;;;;5085117;28;20082;-73
2022/10/10 05:30:45;;;;;;;7.50;4.93;;;18.60;96.70;;;;;;5078304;28;20476;-74
2022/10/10 05:33:13;;;;;;;7.05;5.68;;;18.60;96.70;;;;;;5084858;28;20105;-73
2022/10/10 05:35:41;;;;;;;8.50;5.50;;;18.60;96.70;;;;;;5083866;28;20497;-73
2022/10/10 05:38:09;;;;;;;7.20;5.20;;;18.60;96.70;;;;;;5082466;28;20582;-73
2022/10/10 05:40:41;;;;;;;6.80;5.93;;;18.70;96.70;;;;;;5083394;28;20044;-73
2022/10/10 05:43:09;;;;;;;5.55;5.03;;;18.70;96.70;;;;;;5065648;28;20472;-73
2022/10/10 05:45:38;;;;;;;6.15;5.47;;;18.70;96.70;;;;;;5077440;28;20064;-74
2022/10/10 05:48:06;;;;;;;6.13;5.45;;;18.70;96.70;;;;;;5082875;28;20044;-74
2022/10/10 05:50:37;;;;;;;5.50;5.00;;;18.80;96.70;;;;;;5083799;28;20131;-73
2022/10/10 05:53:06;;;;;;;7.75;5.90;;;18.80;96.70;;;;;;5083057;28;20044;-73
2022/10/10 05:55:34;;;;;;;7.90;5.93;;;18.80;96.70;;;;;;5085666;28;20048;-74
2022/10/10 05:58:05;;;;;;;6.88;6.18;;;18.80;96.70;;;;;;5063429;28;20125;-74
2022/10/10 06:00:33;;;;;;;8.07;6.40;;;18.90;96.70;;;;;;5061390;28;20583;-74
2022/10/10 06:03:11;;;;;;;9.40;6.07;;;18.90;96.70;;;;;;5095044;28;20055;-74
2022/10/10 06:05:39;;;;;;;6.38;5.70;;;18.90;96.70;;;;;;5083636;28;20052;-73
2022/10/10 06:08:08;;;;;;;7.40;5.95;;;18.90;96.70;;;;;;5082252;28;20073;-73
2022/10/10 06:10:41;;;;;;;7.30;5.47;;;18.90;96.70;;;;;;5080619;28;20040;-74
2022/10/10 06:13:13;;;;;;;9.00;5.68;;;18.90;96.70;;;;;;5083413;28;20048;-74
2022/10/10 06:15:41;;;;;;;6.68;5.97;;;18.90;96.70;;;;;;5083332;28;20112;-74
2022/10/10 06:18:10;;;;;;;9.38;7.25;;;18.90;96.70;;;;;;5082104;28;20056;-73
2022/10/10 06:20:39;;;;;;;14.05;8.45;;;18.90;96.70;;;;;;5062971;28;20055;-73
2022/10/10 06:23:08;;;;;;;15.15;9.23;;;18.90;96.70;;;;;;5080708;28;20123;-73
2022/10/10 06:25:37;;;;;;;14.07;8.77;;;18.80;96.70;;;;;;5083528;28;20051;-73
2022/10/10 06:28:10;;;;;;;14.32;9.00;;;18.80;96.70;;;;;;5081428;28;20044;-74
2022/10/10 06:30:43;;;;;;;12.10;8.20;;;18.70;96.70;;;;;;5084765;28;20048;-74
2022/10/10 06:33:11;;;;;;;12.32;8.30;;;18.70;96.70;;;;;;5083959;28;20043;-73
2022/10/10 06:35:41;;;;;;;14.15;8.93;;;18.80;96.70;;;;;;5084201;28;20054;-73
2022/10/10 06:38:10;;;;;;;12.50;8.75;;;18.80;96.70;;;;;;5081559;28;20072;-75
2022/10/10 06:40:38;;;;;;;11.75;8.35;;;18.80;96.70;;;;;;5083770;28;20066;-74
2022/10/10 06:43:10;;;;;;;10.05;8.48;;;18.90;96.70;;;;;;5084240;28;20051;-73
2022/10/10 06:45:42;;;;;;;9.40;7.90;;;18.90;96.70;;;;;;5059154;28;20090;-73
2022/10/10 06:48:11;;;;;;;8.73;7.82;;;19.00;96.70;;;;;;5082987;28;20052;-74
2022/10/10 06:50:40;;;;;;;10.80;7.65;;;19.00;96.70;;;;;;5080486;28;20277;-75
2022/10/10 06:53:08;;;;;;;9.98;7.75;;;19.00;96.70;;;;;;5082369;28;20043;-74
2022/10/10 06:55:36;;;;;;;9.45;7.35;;;19.00;96.70;;;;;;5081392;28;20036;-76
2022/10/10 06:58:06;;;;;;;9.48;7.55;;;19.10;96.70;;;;;;5082652;28;20628;-75
2022/10/10 07:00:34;;;;;;;10.57;7.63;;;19.20;96.70;;;;;;5074483;28;20058;-75
2022/10/10 07:03:04;;;;;;;8.73;7.13;;;19.30;96.70;;;;;;5081654;28;20041;-75
2022/10/10 07:05:32;;;;;;;7.97;7.18;;;19.30;96.70;;;;;;5083886;28;20085;-75
2022/10/10 07:08:01;;;;;;;8.38;6.85;;;19.40;96.70;;;;;;5078014;28;20202;-76
2022/10/10 07:10:31;;;;;;;9.35;7.10;;;19.40;96.70;;;;;;5059917;28;20117;-74
2022/10/10 07:12:59;;;;;;;9.00;7.18;;;19.50;96.70;;;;;;5079116;28;20395;-75
2022/10/10 07:15:28;;;;;;;10.85;8.25;;;19.50;96.70;;;;;;5081914;28;20040;-75
2022/10/10 07:17:57;;;;;;;10.55;7.38;;;19.60;96.70;;;;;;5082987;28;20135;-75
2022/10/10 07:20:27;;;;;;;10.23;7.88;;;19.60;96.70;;;;;;5081697;28;20497;-75
2022/10/10 07:22:55;;;;;;;8.25;6.75;;;19.60;96.70;;;;;;5082135;28;20661;-74
2022/10/10 07:25:23;;;;;;;9.13;7.40;;;19.70;96.70;;;;;;5082868;28;20541;-74
2022/10/10 07:27:52;;;;;;;11.20;7.47;;;19.70;96.70;;;;;;5082219;28;20074;-75
2022/10/10 07:30:20;;;;;;;9.23;7.97;;;19.80;96.70;;;;;;5081072;28;20127;-74
2022/10/10 07:32:48;;;;;;;8.75;7.38;;;19.90;96.70;;;;;;5081466;28;20056;-75
2022/10/10 07:35:17;;;;;;;10.27;7.68;;;19.90;96.70;;;;;;5081705;28;20044;-74
2022/10/10 07:37:47;;;;;;;8.38;6.82;;;19.90;96.70;;;;;;5078372;28;20101;-74
2022/10/10 07:40:16;;;;;;;8.15;7.35;;;19.90;96.70;;;;;;5081462;28;20055;-74
2022/10/10 07:42:44;;;;;;;7.85;7.00;;;19.90;96.70;;;;;;5065893;28;20063;-75
2022/10/10 07:45:12;;;;;;;7.55;6.72;;;20.00;96.70;;;;;;5083105;28;20043;-74
2022/10/10 07:47:41;;;;;;;9.70;7.65;;;20.00;96.70;;;;;;5081056;28;21199;-74
2022/10/10 07:50:11;;;;;;;9.13;7.38;;;20.10;96.70;;;;;;5083754;28;20040;-74
2022/10/10 07:52:43;;;;;;;8.35;7.20;;;20.10;96.70;;;;;;5082449;28;20703;-75
2022/10/10 07:55:13;;;;;;;9.05;6.95;;;20.10;96.70;;;;;;5073680;28;20135;-75
2022/10/10 07:57:41;;;;;;;10.50;6.95;;;20.20;96.70;;;;;;5081931;28;20040;-75
2022/10/10 08:00:11;;;;;;;7.28;6.60;;;20.20;96.70;;;;;;5079293;28;20044;-73
2022/10/10 08:02:39;;;;;;;9.18;6.38;;;20.30;96.70;;;;;;5083491;28;20060;-75
2022/10/10 08:05:08;;;;;;;7.18;6.28;;;20.30;96.70;;;;;;5085988;28;20562;-75
2022/10/10 08:07:36;;;;;;;9.93;7.15;;;20.40;96.70;;;;;;5083602;28;20878;-74
2022/10/10 08:10:07;;;;;;;7.15;6.00;;;20.50;96.70;;;;;;5086882;28;20040;-75
2022/10/10 08:12:37;;;;;;;7.63;6.45;;;20.50;96.70;;;;;;5085175;28;20056;-73
2022/10/10 08:15:06;;;;;;;13.65;6.32;;;20.50;96.70;;;;;;5082609;28;20044;-73
2022/10/10 08:17:35;;;;;;;6.60;5.90;;;20.50;96.70;;;;;;5081294;28;20088;-73
2022/10/10 08:20:04;;;;;;;6.60;5.95;;;20.50;96.70;;;;;;5087529;28;20036;-73
2022/10/10 08:22:32;;;;;;;7.63;6.20;;;20.50;96.70;;;;;;5083267;28;20497;-74
2022/10/10 08:25:01;;;;;;;7.18;6.47;;;20.40;96.70;;;;;;5085251;28;20136;-73
2022/10/10 08:27:29;;;;;;;8.52;6.50;;;20.40;96.70;;;;;;5085019;28;20043;-73
2022/10/10 08:29:59;;;;;;;9.80;6.97;;;20.40;96.70;;;;;;5084388;28;20032;-73
2022/10/10 08:32:27;;;;;;;7.07;6.45;;;20.40;96.70;;;;;;5082960;28;20040;-74
2022/10/10 08:34:55;;;;;;;7.15;6.43;;;20.40;96.70;;;;;;5068038;28;20051;-73
2022/10/10 08:37:24;;;;;;;8.38;6.97;;;20.40;96.70;;;;;;5083373;28;20048;-74
2022/10/10 08:39:59;;;;;;;8.63;7.22;;;20.40;96.70;;;;;;5083261;28;20036;-74
2022/10/10 08:42:31;;;;;;;7.82;6.75;;;20.40;96.70;;;;;;5084362;28;20082;-73
2022/10/10 08:45:08;;;;;;;8.75;6.35;;;20.40;96.70;;;;;;5080393;28;20490;-73
2022/10/10 08:47:42;;;;;;;9.25;7.20;;;20.40;96.70;;;;;;5083597;28;20067;-75
2022/10/10 08:50:15;;;;;;;9.60;7.25;;;20.40;96.70;;;;;;5083321;28;20198;-74
2022/10/10 08:52:49;;;;;;;7.78;6.13;;;20.50;96.70;;;;;;5085356;28;20896;-74
2022/10/10 08:55:22;;;;;;;8.07;6.35;;;20.50;96.70;;;;;;5082784;28;20099;-75
2022/10/10 08:57:54;;;;;;;6.82;6.20;;;20.60;96.70;;;;;;5082250;28;20036;-75
2022/10/10 09:00:28;;;;;;;6.75;6.05;;;20.70;96.70;;;;;;5083326;28;20161;-74
2022/10/10 09:02:59;;;;;;;7.03;6.20;;;20.90;96.70;;;;;;5084612;28;20039;-74
2022/10/10 09:05:45;;;;;;;8.15;6.32;;;21.00;96.70;;;;;;5082174;28;20047;-73
2022/10/10 09:08:35;;;;;;;7.72;6.28;;;21.10;96.70;;;;;;5085200;28;21115;-76
2022/10/10 09:11:14;;;;;;;7.57;6.05;;;21.10;96.70;;;;;;5083295;28;20032;-75
2022/10/10 09:13:50;;;;;;;7.00;5.75;;;21.10;96.70;;;;;;5084192;28;20048;-75
2022/10/10 09:16:32;;;;;;;7.75;5.95;;;21.20;96.70;;;;;;5082544;28;20044;-76
2022/10/10 09:19:11;;;;;;;7.45;6.10;;;21.30;96.70;;;;;;5083498;28;20055;-76
2022/10/10 09:21:45;;;;;;;8.70;5.88;;;21.40;96.70;;;;;;5083277;28;20064;-76
2022/10/10 09:24:18;;;;;;;8.50;5.97;;;21.40;96.70;;;;;;5083244;28;20040;-73
2022/10/10 09:26:51;;;;;;;6.57;5.97;;;21.40;96.70;;;;;;5085448;28;20064;-74
2022/10/10 09:29:28;;;;;;;6.97;6.07;;;21.50;96.70;;;;;;5078750;28;20505;-74
2022/10/10 09:31:59;;;;;;;;;;;21.60;96.70;;;;;;5085978;28;20044;-74
2022/10/10 09:34:35;;;;;;;6.45;5.82;;;21.60;96.70;;;;;;5082462;28;20522;-76
2022/10/10 09:37:09;;;;;;;7.47;6.70;;;21.60;96.70;;;;;;5083726;28;20056;-74
2022/10/10 09:39:47;;;;;;;6.57;5.82;;;21.60;96.70;;;;;;5084055;28;20050;-73
2022/10/10 09:42:21;;;;;;;9.75;6.03;;;21.70;96.70;;;;;;5082770;28;20109;-76
2022/10/10 09:44:49;;;;;;;8.65;6.40;;;21.90;96.70;;;;;;5084224;28;20093;-74
2022/10/10 09:47:20;;;;;;;7.88;6.30;;;21.90;96.70;;;;;;5063678;28;20060;-74
2022/10/10 09:49:48;;;;;;;10.18;6.85;;;22.00;96.70;;;;;;5084785;28;20130;-74
2022/10/10 09:52:24;;;;;;;9.88;6.25;;;22.10;96.70;;;;;;5084630;28;20070;-75
2022/10/10 09:54:57;;;;;;;7.90;5.80;;;22.20;96.70;;;;;;5082602;28;20139;-74
2022/10/10 09:57:31;;;;;;;7.15;6.07;;;22.20;96.70;;;;;;5082041;28;20420;-73
2022/10/10 10:00:12;;;;;;;7.22;6.53;;;22.20;96.70;;;;;;5089065;28;20044;-73
2022/10/10 10:02:42;;;;;;;9.82;6.25;;;22.30;96.70;;;;;;5083715;28;20089;-73
2022/10/10 10:05:22;;;;;;;7.70;6.13;;;22.40;96.70;;;;;;5064334;28;20074;-74
2022/10/10 10:07:51;;;;;;;8.02;5.38;;;22.40;96.70;;;;;;5082956;28;20608;-74
2022/10/10 10:10:22;;;;;;;6.30;5.45;;;22.50;96.70;;;;;;5084938;28;20097;-73
2022/10/10 10:12:52;;;;;;;6.63;5.78;;;22.60;96.70;;;;;;5082709;28;20479;-74
2022/10/10 10:15:22;;;;;;;8.38;5.72;;;22.70;96.70;;;;;;5078079;28;20044;-74
2022/10/10 10:18:20;;;;;;;6.35;5.63;;;22.80;96.70;;;;;;5076406;28;20074;-74
2022/10/10 10:20:50;;;;;;;6.32;5.00;;;22.90;96.70;;;;;;5084183;28;20501;-74
2022/10/10 10:23:30;;;;;;;6.35;5.20;;;23.10;96.70;;;;;;5082127;28;20055;-73
2022/10/10 10:25:59;;;;;;;5.78;5.00;;;23.30;96.70;;;;;;5082909;28;20048;-73
2022/10/10 10:28:29;;;;;;;6.15;5.55;;;23.50;96.70;;;;;;5064333;28;20048;-74
2022/10/10 10:30:58;;;;;;;5.88;4.38;;;23.60;96.70;;;;;;5081586;28;20042;-73
2022/10/10 10:33:49;;;;;;;6.18;4.97;;;23.50;96.70;;;;;;5082884;28;20071;-74
2022/10/10 10:36:30;;;;;;;6.63;5.70;;;23.60;96.70;;;;;;5082710;28;20505;-73
2022/10/10 10:39:09;;;;;;;5.30;4.80;;;23.70;96.70;;;;;;5083487;28;20181;-74
2022/10/10 10:41:44;;;;;;;5.60;4.32;;;23.90;96.70;;;;;;5074498;28;20063;-73
2022/10/10 10:44:23;;;;;;;5.45;4.20;;;24.00;96.70;;;;;;5076079;28;20144;-74
2022/10/10 10:47:04;;;;;;;4.97;4.22;;;24.00;96.70;;;;;;5062695;28;20043;-73
2022/10/10 10:49:42;;;;;;;5.60;4.45;;;24.00;96.70;;;;;;5082573;28;20090;-73
2022/10/10 10:52:30;;;;;;;6.63;4.10;;;24.10;96.70;;;;;;5076543;28;20572;-73
2022/10/10 10:55:11;;;;;;;4.53;3.88;;;24.20;96.70;;;;;;5081959;28;20040;-73
2022/10/10 10:57:51;;;;;;;6.80;4.05;;;24.10;96.70;;;;;;5109651;27;20051;-73
2022/10/10 11:00:50;;;;;;;5.95;4.13;;;24.00;96.70;;;;;;5076429;28;20079;-74
2022/10/10 11:03:50;;;;;;;4.30;3.90;;;24.10;96.70;;;;;;5081608;28;20055;-73
2022/10/10 11:07:03;;;;;;;5.22;3.45;;;24.40;96.70;;;;;;5063111;28;20049;-74
2022/10/10 11:09:53;;;;;;;4.70;3.63;;;24.30;96.70;;;;;;5083072;28;20047;-73
2022/10/10 11:12:35;;;;;;;3.88;3.13;;;24.50;96.70;;;;;;5083831;28;20075;-73
2022/10/10 11:15:10;;;;;;;4.13;3.78;;;24.50;96.70;;;;;;5083529;28;20067;-74
2022/10/10 11:17:41;;;;;;;5.35;3.70;;;24.40;96.70;;;;;;5081751;28;20078;-73
2022/10/10 11:20:21;;;;;;;3.78;3.45;;;24.50;96.70;;;;;;5083176;28;20129;-73
2022/10/10 11:22:57;;;;;;;4.50;3.60;;;24.70;96.70;;;;;;5078860;28;20043;-74
2022/10/10 11:25:28;;;;;;;4.32;3.88;;;25.00;96.70;;;;;;5081559;28;20606;-73
2022/10/10 11:28:00;;;;;;;3.47;3.17;;;25.30;96.70;;;;;;5080922;28;20513;-74
2022/10/10 11:30:33;;;;;;;4.18;3.42;;;25.60;96.70;;;;;;5080248;28;20064;-73
2022/10/10 11:33:09;;;;;;;6.30;3.78;;;25.90;96.70;;;;;;5081079;28;20047;-73
2022/10/10 11:35:42;;;;;;;3.47;3.00;;;26.10;96.70;;;;;;5083237;28;20134;-73
2022/10/10 11:38:21;;;;;;;3.80;3.40;;;26.30;96.70;;;;;;5081222;28;20471;-73
2022/10/10 11:40:54;;;;;;;5.50;3.92;;;26.20;96.70;;;;;;5081147;28;20051;-73
2022/10/10 11:43:33;;;;;;;5.20;4.13;;;26.20;96.70;;;;;;5082812;28;20047;-73
2022/10/10 11:46:12;;;;;;;5.03;3.65;;;26.40;96.70;;;;;;5081922;28;20630;-74
2022/10/10 11:48:49;;;;;;;4.55;3.33;;;26.40;96.70;;;;;;5081491;28;20040;-73
2022/10/10 11:51:46;;;;;;;3.63;3.33;;;26.40;96.70;;;;;;5083547;28;20134;-74
2022/10/10 11:54:24;;;;;;;5.35;3.72;;;26.30;96.70;;;;;;5076746;28;20508;-74
2022/10/10 11:56:57;;;;;;;5.20;3.30;;;26.50;96.70;;;;;;5082150;28;20048;-74
2022/10/10 11:59:33;;;;;;;5.70;3.67;;;26.50;96.70;;;;;;5082474;28;20036;-74
2022/10/10 12:02:10;;;;;;;3.70;3.40;;;26.30;96.70;;;;;;5072819;28;20552;-74
2022/10/10 12:04:38;;;;;;;4.65;3.30;;;26.30;96.70;;;;;;5081076;28;20040;-74
2022/10/10 12:07:13;;;;;;;3.40;3.03;;;26.20;96.70;;;;;;5083105;28;20123;-74
2022/10/10 12:09:49;;;;;;;6.25;3.72;;;26.20;96.70;;;;;;5081970;28;20663;-73
2022/10/10 12:12:21;;;;;;;3.40;3.10;;;26.00;96.70;;;;;;5080400;28;20052;-74
2022/10/10 12:14:54;;;;;;;3.67;3.33;;;25.90;96.70;;;;;;5081454;28;20058;-74
2022/10/10 12:17:28;;;;;;;3.72;3.35;;;25.70;96.70;;;;;;5080982;28;20048;-74
2022/10/10 12:20:09;;;;;;;4.53;3.40;;;25.60;96.70;;;;;;5081163;28;20043;-73
2022/10/10 12:22:37;;;;;;;4.00;3.60;;;25.60;96.70;;;;;;5080123;28;20128;-74
2022/10/10 12:25:22;;;;;;;4.10;3.58;;;25.60;96.70;;;;;;5081195;28;20134;-74
2022/10/10 12:28:21;;;;;;;4.10;3.60;;;25.50;96.70;;;;;;5080359;28;20036;-74
2022/10/10 12:31:17;;;;;;;4.03;3.33;;;25.40;96.70;;;;;;5078337;28;20139;-73
2022/10/10 12:34:08;;;;;;;3.53;3.17;;;25.40;96.70;;;;;;5023426;28;20175;-73
2022/10/10 12:36:55;;;;;;;3.38;3.08;;;25.30;96.70;;;;;;5023095;28;20463;-73
2022/10/10 12:39:36;;;;;;;3.55;3.13;;;25.30;96.70;;;;;;5024051;28;20489;-73
2022/10/10 12:42:28;;;;;;;3.50;2.97;;;25.30;96.70;;;;;;5019140;28;20077;-72
2022/10/10 12:44:56;;;;;;;3.40;3.10;;;25.30;96.70;;;;;;5024040;28;20056;-73
2022/10/10 12:47:41;;;;;;;4.53;4.13;;;25.30;96.70;;;;;;5006048;28;20037;-73
2022/10/10 12:50:33;;;;;;;3.63;3.33;;;25.30;96.70;;;;;;5021100;28;20518;-73
2022/10/10 12:53:03;;;;;;;5.13;3.35;;;25.30;96.70;;;;;;5022952;28;20041;-74
2022/10/10 12:55:39;;;;;;;4.43;3.47;;;25.30;96.70;;;;;;5002410;28;20077;-72
2022/10/10 12:58:21;;;;;;;4.40;3.28;;;25.30;96.70;;;;;;5022341;28;20045;-74
2022/10/10 13:00:56;;;;;;;4.55;3.33;;;25.30;96.70;;;;;;5021241;28;20045;-74
2022/10/10 13:03:29;;;;;;;3.90;3.50;;;25.30;96.70;;;;;;5022447;28;20087;-73
2022/10/10 13:06:04;;;;;;;3.90;3.53;;;25.30;96.70;;;;;;5020608;28;21198;-73
2022/10/10 13:08:36;;;;;;;5.10;3.88;;;25.20;96.70;;;;;;5027817;28;20053;-74
2022/10/10 13:11:07;;;;;;;3.60;3.28;;;25.30;96.70;;;;;;5081553;28;20093;-74
2022/10/10 13:13:38;;;;;;;4.47;3.40;;;25.30;96.70;;;;;;5084844;28;20054;-74